METAR AND TAF INFORMATION
METAR FOR OBBI
ADDS - METARS form results

(2216 UTC 22 February 2019)
Data provider http://aviationweather.gov/metar/data/
 
METAR text: OBBI 222200Z 08004KT CAVOK 17/11 Q1017 NOSIG
Conditions at: OBBI (BAHRAIN INTL ARP, BH) observed 2200 UTC 22 February 2019
Temperature: 17.0°C (63°F)
Dewpoint: 11.0°C (52°F) [RH = 68%]
Pressure (altimeter): 30.03 inches Hg (1017.0 mb)
Winds: from the E (80 degrees) at 5 MPH (4 knots; 2.1 m/s)
Visibility: 6 or more miles (10+ km)
Ceiling: ceiling and visibility are OK
Clouds: unknown
Weather: no significant weather observed at this time

METAR text: OBBI 222130Z 07004KT CAVOK 17/11 Q1017 NOSIG
Conditions at: OBBI (BAHRAIN INTL ARP, BH) observed 2130 UTC 22 February 2019
Temperature: 17.0°C (63°F)
Dewpoint: 11.0°C (52°F) [RH = 68%]
Pressure (altimeter): 30.03 inches Hg (1017.0 mb)
Winds: from the ENE (70 degrees) at 5 MPH (4 knots; 2.1 m/s)
Visibility: 6 or more miles (10+ km)
Ceiling: ceiling and visibility are OK
Clouds: unknown
Weather: no significant weather observed at this time

Forecast for: OBBI (BAHRAIN INTL ARP, BH)
Text: TAF OBBI 221700Z 2218/2400 12008KT CAVOK
Forecast period: 1800 UTC 22 February 2019 to 0000 UTC 24 February 2019
Forecast type: FROM: standard forecast or significant change
Winds: from the ESE (120 degrees) at 9 MPH (8 knots; 4.1 m/s)
Visibility: 6 or more miles 10+ km)
Ceiling: unknown
Clouds: missing
Weather: NSW  (no significant weather)

 AIRPORT MAP

 RUNWAY INFORMATION
Runway 12L Runway length 12979 ft Runway width 197 ft
Runway elevation 6 ft Runway displaced threshold 1000 ft Runway heading 123
Runway 30R Runway length 12979 ft Runway width 197 ft
Runway elevation 6 ft Runway displaced threshold 1000 ft Runway heading 303
Runway 12R Runway length 8302 ft Runway width 148 ft
Runway elevation 7 ft Runway displaced threshold 1000 ft Runway heading 123
Runway 30L Runway length 8302 ft Runway width 148 ft
Runway elevation 6 ft Runway displaced threshold 395 ft Runway heading 303

 AIRPORT FREQUENCIES
Type APP Name APP Frequency 127.85 MHZ
Type ATIS Name ATIS Frequency 127.2 MHZ
Type GND Name GND Frequency 121.675 MHZ
Type OPS Name ATOC Frequency 32.175 MHZ
Type TWR Name TWR Frequency 118.5 MHZ

 AIRPORT NEAR NAVIGATION AIDS
Type VOR-DME Name Bahrain Frequency 115300 KHZ
Type NDB Name Bahrain Frequency 395 KHZ



Copyright © 2011 - 2018 BirgenAir Virtual Airlines. All rights reserved. Developed by Goktug Unver